sensor_id;sensor_type;location;lat;lon;timestamp;temperature;humidity
18805;DHT22;9530;48.930;9.526;2022-12-07T00:01:04;4.10;99.90
18805;DHT22;9530;48.930;9.526;2022-12-07T00:03:31;4.10;99.90
18805;DHT22;9530;48.930;9.526;2022-12-07T00:05:58;4.00;99.90
18805;DHT22;9530;48.930;9.526;2022-12-07T00:08:25;4.10;99.90
18805;DHT22;9530;48.930;9.526;2022-12-07T00:10:52;4.10;99.90
18805;DHT22;9530;48.930;9.526;2022-12-07T00:13:19;4.10;99.90
18805;DHT22;9530;48.930;9.526;2022-12-07T00:15:47;4.10;99.90
18805;DHT22;9530;48.930;9.526;2022-12-07T00:18:13;4.10;99.90
18805;DHT22;9530;48.930;9.526;2022-12-07T00:20:40;4.10;99.90
18805;DHT22;9530;48.930;9.526;2022-12-07T00:23:07;4.10;99.90
18805;DHT22;9530;48.930;9.526;2022-12-07T00:25:33;4.10;99.90
18805;DHT22;9530;48.930;9.526;2022-12-07T00:28:00;4.10;99.90
18805;DHT22;9530;48.930;9.526;2022-12-07T00:30:27;4.10;99.90
18805;DHT22;9530;48.930;9.526;2022-12-07T00:32:55;4.10;99.90
18805;DHT22;9530;48.930;9.526;2022-12-07T00:35:22;4.10;99.90
18805;DHT22;9530;48.930;9.526;2022-12-07T00:37:48;4.10;99.90
18805;DHT22;9530;48.930;9.526;2022-12-07T00:40:15;4.10;99.90
18805;DHT22;9530;48.930;9.526;2022-12-07T00:42:42;4.10;99.90
18805;DHT22;9530;48.930;9.526;2022-12-07T00:45:09;4.10;99.90
18805;DHT22;9530;48.930;9.526;2022-12-07T00:47:36;4.20;99.90
18805;DHT22;9530;48.930;9.526;2022-12-07T00:50:05;4.10;99.90
18805;DHT22;9530;48.930;9.526;2022-12-07T00:52:32;4.10;99.90
18805;DHT22;9530;48.930;9.526;2022-12-07T00:54:58;4.10;99.90
18805;DHT22;9530;48.930;9.526;2022-12-07T00:57:25;4.10;99.90
18805;DHT22;9530;48.930;9.526;2022-12-07T00:59:52;4.10;99.90
18805;DHT22;9530;48.930;9.526;2022-12-07T01:02:20;4.10;99.90
18805;DHT22;9530;48.930;9.526;2022-12-07T01:04:47;4.10;99.90
18805;DHT22;9530;48.930;9.526;2022-12-07T01:07:15;4.10;99.90
18805;DHT22;9530;48.930;9.526;2022-12-07T01:09:42;4.10;99.90
18805;DHT22;9530;48.930;9.526;2022-12-07T01:12:09;4.10;99.90
18805;DHT22;9530;48.930;9.526;2022-12-07T01:14:35;4.00;99.90
18805;DHT22;9530;48.930;9.526;2022-12-07T01:17:02;4.00;99.90
18805;DHT22;9530;48.930;9.526;2022-12-07T01:19:29;4.00;99.90
18805;DHT22;9530;48.930;9.526;2022-12-07T01:21:56;4.00;99.90
18805;DHT22;9530;48.930;9.526;2022-12-07T01:24:24;4.00;99.90
18805;DHT22;9530;48.930;9.526;2022-12-07T01:26:50;3.90;99.90
18805;DHT22;9530;48.930;9.526;2022-12-07T01:29:17;4.00;99.90
18805;DHT22;9530;48.930;9.526;2022-12-07T01:31:44;4.00;99.90
18805;DHT22;9530;48.930;9.526;2022-12-07T01:34:10;3.90;99.90
18805;DHT22;9530;48.930;9.526;2022-12-07T01:36:37;3.80;99.90
18805;DHT22;9530;48.930;9.526;2022-12-07T01:39:06;3.80;99.90
18805;DHT22;9530;48.930;9.526;2022-12-07T01:41:36;3.90;99.90
18805;DHT22;9530;48.930;9.526;2022-12-07T01:44:14;3.90;99.90
18805;DHT22;9530;48.930;9.526;2022-12-07T01:46:43;3.90;99.90
18805;DHT22;9530;48.930;9.526;2022-12-07T01:49:14;3.90;99.90
18805;DHT22;9530;48.930;9.526;2022-12-07T01:51:43;3.90;99.90
18805;DHT22;9530;48.930;9.526;2022-12-07T01:54:13;3.80;99.90
18805;DHT22;9530;48.930;9.526;2022-12-07T01:56:49;3.80;99.90
18805;DHT22;9530;48.930;9.526;2022-12-07T01:59:18;3.70;99.90
18805;DHT22;9530;48.930;9.526;2022-12-07T02:01:46;3.80;99.90
18805;DHT22;9530;48.930;9.526;2022-12-07T02:04:13;3.80;99.90
18805;DHT22;9530;48.930;9.526;2022-12-07T02:06:41;3.80;99.90
18805;DHT22;9530;48.930;9.526;2022-12-07T02:09:09;3.80;99.90
18805;DHT22;9530;48.930;9.526;2022-12-07T02:11:36;3.80;99.90
18805;DHT22;9530;48.930;9.526;2022-12-07T02:14:04;3.70;99.90
18805;DHT22;9530;48.930;9.526;2022-12-07T02:16:36;3.80;99.90
18805;DHT22;9530;48.930;9.526;2022-12-07T02:19:24;3.80;99.90
18805;DHT22;9530;48.930;9.526;2022-12-07T02:21:59;3.80;99.90
18805;DHT22;9530;48.930;9.526;2022-12-07T02:24:43;3.80;99.90
18805;DHT22;9530;48.930;9.526;2022-12-07T02:27:34;3.90;99.90
18805;DHT22;9530;48.930;9.526;2022-12-07T02:30:07;3.80;99.90
18805;DHT22;9530;48.930;9.526;2022-12-07T02:32:42;3.80;99.90
18805;DHT22;9530;48.930;9.526;2022-12-07T02:35:13;3.80;99.90
18805;DHT22;9530;48.930;9.526;2022-12-07T02:37:47;3.80;99.90
18805;DHT22;9530;48.930;9.526;2022-12-07T02:40:20;3.80;99.90
18805;DHT22;9530;48.930;9.526;2022-12-07T02:42:53;3.80;99.90
18805;DHT22;9530;48.930;9.526;2022-12-07T02:45:25;3.80;99.90
18805;DHT22;9530;48.930;9.526;2022-12-07T02:47:53;3.80;99.90
18805;DHT22;9530;48.930;9.526;2022-12-07T02:50:24;3.70;99.90
18805;DHT22;9530;48.930;9.526;2022-12-07T02:52:51;3.80;99.90
18805;DHT22;9530;48.930;9.526;2022-12-07T02:55:21;3.80;99.90
18805;DHT22;9530;48.930;9.526;2022-12-07T02:57:58;3.80;99.90
18805;DHT22;9530;48.930;9.526;2022-12-07T03:00:31;3.80;99.90
18805;DHT22;9530;48.930;9.526;2022-12-07T03:03:04;3.90;99.90
18805;DHT22;9530;48.930;9.526;2022-12-07T03:05:59;3.90;99.90
18805;DHT22;9530;48.930;9.526;2022-12-07T03:08:33;3.90;99.90
18805;DHT22;9530;48.930;9.526;2022-12-07T03:11:04;3.90;99.90
18805;DHT22;9530;48.930;9.526;2022-12-07T03:13:35;3.90;99.90
18805;DHT22;9530;48.930;9.526;2022-12-07T03:16:11;3.90;99.90
18805;DHT22;9530;48.930;9.526;2022-12-07T03:18:44;3.80;99.90
18805;DHT22;9530;48.930;9.526;2022-12-07T03:21:15;3.80;99.90
18805;DHT22;9530;48.930;9.526;2022-12-07T03:23:45;3.80;99.90
18805;DHT22;9530;48.930;9.526;2022-12-07T03:26:15;3.80;99.90
18805;DHT22;9530;48.930;9.526;2022-12-07T03:28:46;3.80;99.90
18805;DHT22;9530;48.930;9.526;2022-12-07T03:31:18;3.80;99.90
18805;DHT22;9530;48.930;9.526;2022-12-07T03:33:51;3.80;99.90
18805;DHT22;9530;48.930;9.526;2022-12-07T03:36:23;3.80;99.90
18805;DHT22;9530;48.930;9.526;2022-12-07T03:38:56;3.90;99.90
18805;DHT22;9530;48.930;9.526;2022-12-07T03:41:26;3.80;99.90
18805;DHT22;9530;48.930;9.526;2022-12-07T03:43:54;3.90;99.90
18805;DHT22;9530;48.930;9.526;2022-12-07T03:46:29;3.90;99.90
18805;DHT22;9530;48.930;9.526;2022-12-07T03:49:05;3.90;99.90
18805;DHT22;9530;48.930;9.526;2022-12-07T03:51:39;3.90;99.90
18805;DHT22;9530;48.930;9.526;2022-12-07T03:54:11;3.90;99.90
18805;DHT22;9530;48.930;9.526;2022-12-07T03:56:40;4.00;99.90
18805;DHT22;9530;48.930;9.526;2022-12-07T03:59:08;4.10;99.90
18805;DHT22;9530;48.930;9.526;2022-12-07T04:01:37;4.10;99.90
18805;DHT22;9530;48.930;9.526;2022-12-07T04:04:04;4.00;99.90
18805;DHT22;9530;48.930;9.526;2022-12-07T04:06:30;4.10;99.90
18805;DHT22;9530;48.930;9.526;2022-12-07T04:08:57;4.00;99.90
18805;DHT22;9530;48.930;9.526;2022-12-07T04:11:24;3.90;99.90
18805;DHT22;9530;48.930;9.526;2022-12-07T04:13:50;3.80;99.90
18805;DHT22;9530;48.930;9.526;2022-12-07T04:16:35;3.70;99.90
18805;DHT22;9530;48.930;9.526;2022-12-07T04:19:03;3.70;99.90
18805;DHT22;9530;48.930;9.526;2022-12-07T04:21:29;3.60;99.90
18805;DHT22;9530;48.930;9.526;2022-12-07T04:23:56;3.60;99.90
18805;DHT22;9530;48.930;9.526;2022-12-07T04:26:23;3.60;99.90
18805;DHT22;9530;48.930;9.526;2022-12-07T04:28:49;3.60;99.90
18805;DHT22;9530;48.930;9.526;2022-12-07T04:31:16;3.60;99.90
18805;DHT22;9530;48.930;9.526;2022-12-07T04:33:43;3.60;99.90
18805;DHT22;9530;48.930;9.526;2022-12-07T04:36:11;3.50;99.90
18805;DHT22;9530;48.930;9.526;2022-12-07T04:38:37;3.60;99.90
18805;DHT22;9530;48.930;9.526;2022-12-07T04:41:05;3.60;99.90
18805;DHT22;9530;48.930;9.526;2022-12-07T04:43:32;3.60;99.90
18805;DHT22;9530;48.930;9.526;2022-12-07T04:45:59;3.40;99.90
18805;DHT22;9530;48.930;9.526;2022-12-07T04:48:26;3.40;99.90
18805;DHT22;9530;48.930;9.526;2022-12-07T04:50:52;3.40;99.90
18805;DHT22;9530;48.930;9.526;2022-12-07T04:53:21;3.40;99.90
18805;DHT22;9530;48.930;9.526;2022-12-07T04:55:48;3.40;99.90
18805;DHT22;9530;48.930;9.526;2022-12-07T04:58:15;3.40;99.90
18805;DHT22;9530;48.930;9.526;2022-12-07T05:00:42;3.20;99.90
18805;DHT22;9530;48.930;9.526;2022-12-07T05:03:08;3.30;99.90
18805;DHT22;9530;48.930;9.526;2022-12-07T05:05:35;3.40;99.90
18805;DHT22;9530;48.930;9.526;2022-12-07T05:08:02;3.40;99.90
18805;DHT22;9530;48.930;9.526;2022-12-07T05:10:30;3.40;99.90
18805;DHT22;9530;48.930;9.526;2022-12-07T05:12:56;3.40;99.90
18805;DHT22;9530;48.930;9.526;2022-12-07T05:15:23;3.40;99.90
18805;DHT22;9530;48.930;9.526;2022-12-07T05:17:50;3.40;99.90
18805;DHT22;9530;48.930;9.526;2022-12-07T05:20:17;3.50;99.90
18805;DHT22;9530;48.930;9.526;2022-12-07T05:22:44;3.50;99.90
18805;DHT22;9530;48.930;9.526;2022-12-07T05:25:11;3.50;99.90
18805;DHT22;9530;48.930;9.526;2022-12-07T05:27:39;3.60;99.90
18805;DHT22;9530;48.930;9.526;2022-12-07T05:30:06;3.60;99.90
18805;DHT22;9530;48.930;9.526;2022-12-07T05:32:33;3.60;99.90
18805;DHT22;9530;48.930;9.526;2022-12-07T05:35:00;3.60;99.90
18805;DHT22;9530;48.930;9.526;2022-12-07T05:37:27;3.50;99.90
18805;DHT22;9530;48.930;9.526;2022-12-07T05:39:53;3.50;99.90
18805;DHT22;9530;48.930;9.526;2022-12-07T05:42:20;3.50;99.90
18805;DHT22;9530;48.930;9.526;2022-12-07T05:44:48;3.50;99.90
18805;DHT22;9530;48.930;9.526;2022-12-07T05:47:16;3.40;99.90
18805;DHT22;9530;48.930;9.526;2022-12-07T05:49:43;3.30;99.90
18805;DHT22;9530;48.930;9.526;2022-12-07T05:52:09;3.20;99.90
18805;DHT22;9530;48.930;9.526;2022-12-07T05:54:36;3.30;99.90
18805;DHT22;9530;48.930;9.526;2022-12-07T05:57:03;3.30;99.90
18805;DHT22;9530;48.930;9.526;2022-12-07T05:59:29;3.30;99.90
18805;DHT22;9530;48.930;9.526;2022-12-07T06:01:58;3.40;99.90
18805;DHT22;9530;48.930;9.526;2022-12-07T06:04:26;3.40;99.90
18805;DHT22;9530;48.930;9.526;2022-12-07T06:06:53;3.40;99.90
18805;DHT22;9530;48.930;9.526;2022-12-07T06:09:21;3.40;99.90
18805;DHT22;9530;48.930;9.526;2022-12-07T06:11:48;3.30;99.90
18805;DHT22;9530;48.930;9.526;2022-12-07T06:14:33;3.30;99.90
18805;DHT22;9530;48.930;9.526;2022-12-07T06:17:01;3.20;99.90
18805;DHT22;9530;48.930;9.526;2022-12-07T06:19:27;3.20;99.90
18805;DHT22;9530;48.930;9.526;2022-12-07T06:21:54;3.20;99.90
18805;DHT22;9530;48.930;9.526;2022-12-07T06:24:21;3.20;99.90
18805;DHT22;9530;48.930;9.526;2022-12-07T06:26:49;3.20;99.90
18805;DHT22;9530;48.930;9.526;2022-12-07T06:29:17;3.20;99.90
18805;DHT22;9530;48.930;9.526;2022-12-07T06:31:43;3.20;99.90
18805;DHT22;9530;48.930;9.526;2022-12-07T06:34:13;3.30;99.90
18805;DHT22;9530;48.930;9.526;2022-12-07T06:36:40;3.20;99.90
18805;DHT22;9530;48.930;9.526;2022-12-07T06:39:08;3.20;99.90
18805;DHT22;9530;48.930;9.526;2022-12-07T06:41:35;3.20;99.90
18805;DHT22;9530;48.930;9.526;2022-12-07T06:44:02;3.20;99.90
18805;DHT22;9530;48.930;9.526;2022-12-07T06:46:29;3.20;99.90
18805;DHT22;9530;48.930;9.526;2022-12-07T06:48:56;3.30;99.90
18805;DHT22;9530;48.930;9.526;2022-12-07T06:51:25;3.20;99.90
18805;DHT22;9530;48.930;9.526;2022-12-07T06:53:52;3.20;99.90
18805;DHT22;9530;48.930;9.526;2022-12-07T06:56:19;3.20;99.90
18805;DHT22;9530;48.930;9.526;2022-12-07T06:58:45;3.30;99.90
18805;DHT22;9530;48.930;9.526;2022-12-07T07:01:13;3.30;99.90
18805;DHT22;9530;48.930;9.526;2022-12-07T07:03:41;3.30;99.90
18805;DHT22;9530;48.930;9.526;2022-12-07T07:06:08;3.30;99.90
18805;DHT22;9530;48.930;9.526;2022-12-07T07:08:36;3.20;99.90
18805;DHT22;9530;48.930;9.526;2022-12-07T07:11:04;3.10;99.90
18805;DHT22;9530;48.930;9.526;2022-12-07T07:13:32;3.10;99.90
18805;DHT22;9530;48.930;9.526;2022-12-07T07:15:59;3.10;99.90
18805;DHT22;9530;48.930;9.526;2022-12-07T07:18:26;3.20;99.90
18805;DHT22;9530;48.930;9.526;2022-12-07T07:20:53;3.20;99.90
18805;DHT22;9530;48.930;9.526;2022-12-07T07:23:20;3.20;99.90
18805;DHT22;9530;48.930;9.526;2022-12-07T07:25:49;3.30;99.90
18805;DHT22;9530;48.930;9.526;2022-12-07T07:28:16;3.30;99.90
18805;DHT22;9530;48.930;9.526;2022-12-07T07:30:43;3.20;99.90
18805;DHT22;9530;48.930;9.526;2022-12-07T07:33:10;3.20;99.90
18805;DHT22;9530;48.930;9.526;2022-12-07T07:35:37;3.20;99.90
18805;DHT22;9530;48.930;9.526;2022-12-07T07:38:04;3.30;99.90
18805;DHT22;9530;48.930;9.526;2022-12-07T07:40:31;3.30;99.90
18805;DHT22;9530;48.930;9.526;2022-12-07T07:43:00;3.40;99.90
18805;DHT22;9530;48.930;9.526;2022-12-07T07:45:27;3.40;99.90
18805;DHT22;9530;48.930;9.526;2022-12-07T07:47:54;3.50;99.90
18805;DHT22;9530;48.930;9.526;2022-12-07T07:50:21;3.50;99.90
18805;DHT22;9530;48.930;9.526;2022-12-07T07:52:48;3.50;99.90
18805;DHT22;9530;48.930;9.526;2022-12-07T07:55:15;3.60;99.90
18805;DHT22;9530;48.930;9.526;2022-12-07T07:57:41;3.60;99.90
18805;DHT22;9530;48.930;9.526;2022-12-07T08:00:13;3.60;99.90
18805;DHT22;9530;48.930;9.526;2022-12-07T08:02:41;3.70;99.90
18805;DHT22;9530;48.930;9.526;2022-12-07T08:05:09;3.70;99.90
18805;DHT22;9530;48.930;9.526;2022-12-07T08:07:36;3.70;99.90
18805;DHT22;9530;48.930;9.526;2022-12-07T08:10:03;3.80;99.90
18805;DHT22;9530;48.930;9.526;2022-12-07T08:12:30;3.90;99.90
18805;DHT22;9530;48.930;9.526;2022-12-07T08:14:57;3.90;99.90
18805;DHT22;9530;48.930;9.526;2022-12-07T08:17:25;3.90;99.90
18805;DHT22;9530;48.930;9.526;2022-12-07T08:19:52;3.90;99.90
18805;DHT22;9530;48.930;9.526;2022-12-07T08:22:19;3.80;99.90
18805;DHT22;9530;48.930;9.526;2022-12-07T08:24:45;3.90;99.90
18805;DHT22;9530;48.930;9.526;2022-12-07T08:27:12;4.00;99.90
18805;DHT22;9530;48.930;9.526;2022-12-07T08:29:39;4.10;99.90
18805;DHT22;9530;48.930;9.526;2022-12-07T08:32:06;4.10;99.90
18805;DHT22;9530;48.930;9.526;2022-12-07T08:34:34;4.20;99.90
18805;DHT22;9530;48.930;9.526;2022-12-07T08:37:01;4.20;99.90
18805;DHT22;9530;48.930;9.526;2022-12-07T08:39:27;4.30;99.90
18805;DHT22;9530;48.930;9.526;2022-12-07T08:41:54;4.30;99.90
18805;DHT22;9530;48.930;9.526;2022-12-07T08:44:21;4.40;99.90
18805;DHT22;9530;48.930;9.526;2022-12-07T08:46:51;4.40;99.90
18805;DHT22;9530;48.930;9.526;2022-12-07T08:49:21;4.40;99.90
18805;DHT22;9530;48.930;9.526;2022-12-07T08:51:50;4.40;99.90
18805;DHT22;9530;48.930;9.526;2022-12-07T08:54:18;4.50;99.90
18805;DHT22;9530;48.930;9.526;2022-12-07T08:56:46;4.50;99.90
18805;DHT22;9530;48.930;9.526;2022-12-07T08:59:15;4.40;99.90
18805;DHT22;9530;48.930;9.526;2022-12-07T09:01:44;4.40;99.90
18805;DHT22;9530;48.930;9.526;2022-12-07T09:04:10;4.40;99.90
18805;DHT22;9530;48.930;9.526;2022-12-07T09:06:37;4.50;99.90
18805;DHT22;9530;48.930;9.526;2022-12-07T09:09:06;4.50;99.90
18805;DHT22;9530;48.930;9.526;2022-12-07T09:11:33;4.50;99.90
18805;DHT22;9530;48.930;9.526;2022-12-07T09:14:00;4.50;99.90
18805;DHT22;9530;48.930;9.526;2022-12-07T09:16:27;4.50;99.90
18805;DHT22;9530;48.930;9.526;2022-12-07T09:18:53;4.50;99.90
18805;DHT22;9530;48.930;9.526;2022-12-07T09:21:20;4.50;99.90
18805;DHT22;9530;48.930;9.526;2022-12-07T09:23:47;4.50;99.90
18805;DHT22;9530;48.930;9.526;2022-12-07T09:26:15;4.60;99.90
18805;DHT22;9530;48.930;9.526;2022-12-07T09:28:42;4.60;99.90
18805;DHT22;9530;48.930;9.526;2022-12-07T09:31:09;4.70;99.90
18805;DHT22;9530;48.930;9.526;2022-12-07T09:33:35;4.70;99.90
18805;DHT22;9530;48.930;9.526;2022-12-07T09:36:03;4.90;99.90
18805;DHT22;9530;48.930;9.526;2022-12-07T09:38:30;4.90;99.90
18805;DHT22;9530;48.930;9.526;2022-12-07T09:40:58;4.90;99.90
18805;DHT22;9530;48.930;9.526;2022-12-07T09:43:31;5.10;99.90
18805;DHT22;9530;48.930;9.526;2022-12-07T09:45:58;5.10;99.90
18805;DHT22;9530;48.930;9.526;2022-12-07T09:48:30;5.00;99.90
18805;DHT22;9530;48.930;9.526;2022-12-07T09:50:59;5.00;99.90
18805;DHT22;9530;48.930;9.526;2022-12-07T09:53:28;4.80;99.90
18805;DHT22;9530;48.930;9.526;2022-12-07T09:55:55;4.90;99.90
18805;DHT22;9530;48.930;9.526;2022-12-07T09:58:23;4.90;99.90
18805;DHT22;9530;48.930;9.526;2022-12-07T10:00:55;5.00;99.90
18805;DHT22;9530;48.930;9.526;2022-12-07T10:03:22;5.00;99.90
18805;DHT22;9530;48.930;9.526;2022-12-07T10:05:50;5.10;99.90
18805;DHT22;9530;48.930;9.526;2022-12-07T10:08:17;5.30;99.90
18805;DHT22;9530;48.930;9.526;2022-12-07T10:10:50;5.30;99.90
18805;DHT22;9530;48.930;9.526;2022-12-07T10:13:20;5.30;99.90
18805;DHT22;9530;48.930;9.526;2022-12-07T10:15:50;5.30;99.90
18805;DHT22;9530;48.930;9.526;2022-12-07T10:18:31;5.30;99.90
18805;DHT22;9530;48.930;9.526;2022-12-07T10:21:17;5.40;99.90
18805;DHT22;9530;48.930;9.526;2022-12-07T10:24:00;5.40;99.90
18805;DHT22;9530;48.930;9.526;2022-12-07T10:26:30;5.40;99.90
18805;DHT22;9530;48.930;9.526;2022-12-07T10:28:59;5.30;99.90
18805;DHT22;9530;48.930;9.526;2022-12-07T10:31:27;5.20;99.90
18805;DHT22;9530;48.930;9.526;2022-12-07T10:33:56;5.10;99.90
18805;DHT22;9530;48.930;9.526;2022-12-07T10:36:26;5.10;99.90
18805;DHT22;9530;48.930;9.526;2022-12-07T10:38:59;5.10;99.90
18805;DHT22;9530;48.930;9.526;2022-12-07T10:41:26;5.10;99.90
18805;DHT22;9530;48.930;9.526;2022-12-07T10:43:54;5.00;99.90
18805;DHT22;9530;48.930;9.526;2022-12-07T10:46:50;5.00;99.90
18805;DHT22;9530;48.930;9.526;2022-12-07T10:49:41;4.90;99.90
18805;DHT22;9530;48.930;9.526;2022-12-07T10:52:18;5.10;99.90
18805;DHT22;9530;48.930;9.526;2022-12-07T10:54:56;5.10;99.90
18805;DHT22;9530;48.930;9.526;2022-12-07T10:57:39;5.10;99.90
18805;DHT22;9530;48.930;9.526;2022-12-07T11:00:19;5.10;99.90
18805;DHT22;9530;48.930;9.526;2022-12-07T11:03:14;5.10;99.90
18805;DHT22;9530;48.930;9.526;2022-12-07T11:05:53;5.10;99.90
18805;DHT22;9530;48.930;9.526;2022-12-07T11:08:34;5.00;99.90
18805;DHT22;9530;48.930;9.526;2022-12-07T11:11:08;5.10;99.90
18805;DHT22;9530;48.930;9.526;2022-12-07T11:13:40;5.00;99.90
18805;DHT22;9530;48.930;9.526;2022-12-07T11:16:24;5.00;99.90
18805;DHT22;9530;48.930;9.526;2022-12-07T11:19:06;5.00;99.90
18805;DHT22;9530;48.930;9.526;2022-12-07T11:21:45;4.90;99.90
18805;DHT22;9530;48.930;9.526;2022-12-07T11:24:16;5.00;99.90
18805;DHT22;9530;48.930;9.526;2022-12-07T11:26:55;4.90;99.90
18805;DHT22;9530;48.930;9.526;2022-12-07T11:29:36;4.90;99.90
18805;DHT22;9530;48.930;9.526;2022-12-07T11:32:15;4.90;99.90
18805;DHT22;9530;48.930;9.526;2022-12-07T11:34:53;4.80;99.90
18805;DHT22;9530;48.930;9.526;2022-12-07T11:37:30;4.80;99.90
18805;DHT22;9530;48.930;9.526;2022-12-07T11:40:02;4.80;99.90
18805;DHT22;9530;48.930;9.526;2022-12-07T11:42:33;4.90;99.90
18805;DHT22;9530;48.930;9.526;2022-12-07T11:45:12;4.90;99.90
18805;DHT22;9530;48.930;9.526;2022-12-07T11:47:45;4.90;99.90
18805;DHT22;9530;48.930;9.526;2022-12-07T11:50:33;4.90;99.90
18805;DHT22;9530;48.930;9.526;2022-12-07T11:53:03;5.00;99.90
18805;DHT22;9530;48.930;9.526;2022-12-07T11:55:41;5.00;99.90
18805;DHT22;9530;48.930;9.526;2022-12-07T11:58:19;5.00;99.90
18805;DHT22;9530;48.930;9.526;2022-12-07T12:00:47;5.20;99.90
18805;DHT22;9530;48.930;9.526;2022-12-07T12:03:20;5.10;99.90
18805;DHT22;9530;48.930;9.526;2022-12-07T12:05:49;5.20;99.90
18805;DHT22;9530;48.930;9.526;2022-12-07T12:08:21;5.20;99.90
18805;DHT22;9530;48.930;9.526;2022-12-07T12:10:55;5.30;99.90
18805;DHT22;9530;48.930;9.526;2022-12-07T12:13:47;5.30;99.90
18805;DHT22;9530;48.930;9.526;2022-12-07T12:16:35;5.30;99.90
18805;DHT22;9530;48.930;9.526;2022-12-07T12:19:16;5.30;99.90
18805;DHT22;9530;48.930;9.526;2022-12-07T12:21:46;5.30;99.90
18805;DHT22;9530;48.930;9.526;2022-12-07T12:24:18;5.30;99.90
18805;DHT22;9530;48.930;9.526;2022-12-07T12:26:50;5.40;99.90
18805;DHT22;9530;48.930;9.526;2022-12-07T12:29:21;5.40;99.90
18805;DHT22;9530;48.930;9.526;2022-12-07T12:32:06;5.40;99.90
18805;DHT22;9530;48.930;9.526;2022-12-07T12:34:39;5.40;99.90
18805;DHT22;9530;48.930;9.526;2022-12-07T12:37:41;5.40;99.90
18805;DHT22;9530;48.930;9.526;2022-12-07T12:43:41;5.20;99.90
18805;DHT22;9530;48.930;9.526;2022-12-07T12:46:36;5.10;99.90
18805;DHT22;9530;48.930;9.526;2022-12-07T12:49:36;5.10;99.90
18805;DHT22;9530;48.930;9.526;2022-12-07T12:55:20;5.10;99.90
18805;DHT22;9530;48.930;9.526;2022-12-07T13:04:48;5.00;99.90
18805;DHT22;9530;48.930;9.526;2022-12-07T13:13:33;4.90;99.90
18805;DHT22;9530;48.930;9.526;2022-12-07T13:16:39;4.80;99.90
18805;DHT22;9530;48.930;9.526;2022-12-07T13:22:54;4.80;99.90
18805;DHT22;9530;48.930;9.526;2022-12-07T13:25:31;4.90;99.90
18805;DHT22;9530;48.930;9.526;2022-12-07T13:28:02;4.80;99.90
18805;DHT22;9530;48.930;9.526;2022-12-07T13:30:45;4.90;99.90
18805;DHT22;9530;48.930;9.526;2022-12-07T13:33:12;4.90;99.90
18805;DHT22;9530;48.930;9.526;2022-12-07T13:35:39;4.90;99.90
18805;DHT22;9530;48.930;9.526;2022-12-07T13:38:20;4.80;99.90
18805;DHT22;9530;48.930;9.526;2022-12-07T13:41:03;4.80;99.90
18805;DHT22;9530;48.930;9.526;2022-12-07T13:43:30;4.80;99.90
18805;DHT22;9530;48.930;9.526;2022-12-07T13:45:58;4.80;99.90
18805;DHT22;9530;48.930;9.526;2022-12-07T13:48:30;4.80;99.90
18805;DHT22;9530;48.930;9.526;2022-12-07T13:51:00;4.90;99.90
18805;DHT22;9530;48.930;9.526;2022-12-07T13:53:29;4.80;99.90
18805;DHT22;9530;48.930;9.526;2022-12-07T13:55:57;4.80;99.90
18805;DHT22;9530;48.930;9.526;2022-12-07T13:58:34;4.90;99.90
18805;DHT22;9530;48.930;9.526;2022-12-07T14:01:00;4.90;99.90
18805;DHT22;9530;48.930;9.526;2022-12-07T14:03:30;4.90;99.90
18805;DHT22;9530;48.930;9.526;2022-12-07T14:06:14;4.90;99.90
18805;DHT22;9530;48.930;9.526;2022-12-07T14:08:43;5.00;99.90
18805;DHT22;9530;48.930;9.526;2022-12-07T14:11:16;4.90;99.90
18805;DHT22;9530;48.930;9.526;2022-12-07T14:14:02;5.00;99.90
18805;DHT22;9530;48.930;9.526;2022-12-07T14:16:32;5.00;99.90
18805;DHT22;9530;48.930;9.526;2022-12-07T14:19:02;4.90;99.90
18805;DHT22;9530;48.930;9.526;2022-12-07T14:21:30;5.00;99.90
18805;DHT22;9530;48.930;9.526;2022-12-07T14:24:17;4.90;99.90
18805;DHT22;9530;48.930;9.526;2022-12-07T14:26:46;5.00;99.90
18805;DHT22;9530;48.930;9.526;2022-12-07T14:29:20;5.00;99.90
18805;DHT22;9530;48.930;9.526;2022-12-07T14:31:47;4.90;99.90
18805;DHT22;9530;48.930;9.526;2022-12-07T14:34:14;4.90;99.90
18805;DHT22;9530;48.930;9.526;2022-12-07T14:36:40;4.90;99.90
18805;DHT22;9530;48.930;9.526;2022-12-07T14:39:07;4.90;99.90
18805;DHT22;9530;48.930;9.526;2022-12-07T14:41:35;4.90;99.90
18805;DHT22;9530;48.930;9.526;2022-12-07T14:44:18;4.80;99.90
18805;DHT22;9530;48.930;9.526;2022-12-07T14:46:45;4.90;99.90
18805;DHT22;9530;48.930;9.526;2022-12-07T14:49:12;4.90;99.90
18805;DHT22;9530;48.930;9.526;2022-12-07T14:51:40;4.80;99.90
18805;DHT22;9530;48.930;9.526;2022-12-07T14:54:14;4.80;99.90
18805;DHT22;9530;48.930;9.526;2022-12-07T14:56:43;4.80;99.90
18805;DHT22;9530;48.930;9.526;2022-12-07T14:59:11;4.70;99.90
18805;DHT22;9530;48.930;9.526;2022-12-07T15:01:38;4.70;99.90
18805;DHT22;9530;48.930;9.526;2022-12-07T15:04:05;4.70;99.90
18805;DHT22;9530;48.930;9.526;2022-12-07T15:06:32;4.60;99.90
18805;DHT22;9530;48.930;9.526;2022-12-07T15:08:58;4.60;99.90
18805;DHT22;9530;48.930;9.526;2022-12-07T15:11:25;4.60;99.90
18805;DHT22;9530;48.930;9.526;2022-12-07T15:13:53;4.70;99.90
18805;DHT22;9530;48.930;9.526;2022-12-07T15:16:37;4.70;99.90
18805;DHT22;9530;48.930;9.526;2022-12-07T15:19:05;4.70;99.90
18805;DHT22;9530;48.930;9.526;2022-12-07T15:21:32;4.60;99.90
18805;DHT22;9530;48.930;9.526;2022-12-07T15:23:59;4.60;99.90
18805;DHT22;9530;48.930;9.526;2022-12-07T15:26:25;4.60;99.90
18805;DHT22;9530;48.930;9.526;2022-12-07T15:28:54;4.60;99.90
18805;DHT22;9530;48.930;9.526;2022-12-07T15:31:20;4.50;99.90
18805;DHT22;9530;48.930;9.526;2022-12-07T15:33:47;4.60;99.90
18805;DHT22;9530;48.930;9.526;2022-12-07T15:36:19;4.50;99.90
18805;DHT22;9530;48.930;9.526;2022-12-07T15:38:46;4.50;99.90
18805;DHT22;9530;48.930;9.526;2022-12-07T15:41:13;4.40;99.90
18805;DHT22;9530;48.930;9.526;2022-12-07T15:43:40;4.40;99.90
18805;DHT22;9530;48.930;9.526;2022-12-07T15:46:29;4.40;99.90
18805;DHT22;9530;48.930;9.526;2022-12-07T15:48:56;4.40;99.90
18805;DHT22;9530;48.930;9.526;2022-12-07T15:51:23;4.40;99.90
18805;DHT22;9530;48.930;9.526;2022-12-07T15:53:49;4.40;99.90
18805;DHT22;9530;48.930;9.526;2022-12-07T15:56:16;4.40;99.90
18805;DHT22;9530;48.930;9.526;2022-12-07T15:58:43;4.40;99.90
18805;DHT22;9530;48.930;9.526;2022-12-07T16:01:11;4.40;99.90
18805;DHT22;9530;48.930;9.526;2022-12-07T16:03:39;4.40;99.90
18805;DHT22;9530;48.930;9.526;2022-12-07T16:06:06;4.40;99.90
18805;DHT22;9530;48.930;9.526;2022-12-07T16:08:32;4.40;99.90
18805;DHT22;9530;48.930;9.526;2022-12-07T16:10:59;4.30;99.90
18805;DHT22;9530;48.930;9.526;2022-12-07T16:13:26;4.30;99.90
18805;DHT22;9530;48.930;9.526;2022-12-07T16:15:53;4.30;99.90
18805;DHT22;9530;48.930;9.526;2022-12-07T16:18:19;4.20;99.90
18805;DHT22;9530;48.930;9.526;2022-12-07T16:20:49;4.10;99.90
18805;DHT22;9530;48.930;9.526;2022-12-07T16:23:16;4.00;99.90
18805;DHT22;9530;48.930;9.526;2022-12-07T16:25:42;4.00;99.90
18805;DHT22;9530;48.930;9.526;2022-12-07T16:28:09;4.00;99.90
18805;DHT22;9530;48.930;9.526;2022-12-07T16:30:36;4.00;99.90
18805;DHT22;9530;48.930;9.526;2022-12-07T16:33:02;4.10;99.90
18805;DHT22;9530;48.930;9.526;2022-12-07T16:35:29;4.00;99.90
18805;DHT22;9530;48.930;9.526;2022-12-07T16:37:57;4.00;99.90
18805;DHT22;9530;48.930;9.526;2022-12-07T16:40:24;3.90;99.90
18805;DHT22;9530;48.930;9.526;2022-12-07T16:42:51;3.90;99.90
18805;DHT22;9530;48.930;9.526;2022-12-07T16:45:18;3.90;99.90